Time;durP1;ratioP1;P1;durP2;ratioP2;P2;SDS_P1;SDS_P2;PMS_P1;PMS_P2;Temp;Humidity;BMP_temperature;BMP_pressure;BME280_temperature;BME280_humidity;BME280_pressure;Samples;Min_cycle;Max_cycle;Signal;HPM_P1;HPM_P2
2023/05/28 00:01:03;;;;;;;10.93;7.43;;;;;;;11.85;100.00;101788.44;5093495;28;20073;-78
2023/05/28 00:03:31;;;;;;;15.40;7.20;;;;;;;11.88;100.00;101796.09;5093993;28;20030;-79
2023/05/28 00:05:59;;;;;;;12.18;7.88;;;;;;;11.88;100.00;101793.44;5094162;28;20380;-77
2023/05/28 00:11:46;;;;;;;13.73;8.48;;;;;;;11.83;100.00;101790.50;5111728;28;20047;-76
2023/05/28 00:17:33;;;;;;;11.55;7.78;;;;;;;11.38;100.00;101770.44;5116432;28;20046;-78
2023/05/28 00:23:21;;;;;;;13.50;8.75;;;;;;;11.31;100.00;101766.91;5113226;28;20042;-76
2023/05/28 00:25:46;;;;;;;14.05;8.02;;;;;;;11.32;100.00;101773.91;5093463;28;20039;-76
2023/05/28 00:34:55;;;;;;;12.32;7.82;;;;;;;11.14;100.00;101779.75;5112550;28;20062;-76
2023/05/28 00:40:44;;;;;;;11.90;8.18;;;;;;;10.81;100.00;101776.81;5112334;28;20412;-76
2023/05/28 00:46:32;;;;;;;11.10;7.38;;;;;;;10.69;100.00;101791.69;5112665;28;20101;-75
2023/05/28 00:48:57;;;;;;;11.55;7.90;;;;;;;10.68;100.00;101784.69;5112150;28;20019;-75
2023/05/28 00:54:44;;;;;;;12.77;7.80;;;;;;;10.49;100.00;101772.78;5112280;28;20333;-76
2023/05/28 00:57:10;;;;;;;15.55;8.73;;;;;;;10.54;100.00;101775.72;5110954;28;20044;-75
2023/05/28 01:02:58;;;;;;;15.27;8.77;;;;;;;10.56;100.00;101771.00;5112075;28;20043;-77
2023/05/28 01:05:23;;;;;;;14.43;8.00;;;;;;;10.58;100.00;101779.66;5112069;28;20015;-78
2023/05/28 01:07:49;;;;;;;16.02;9.38;;;;;;;10.48;100.00;101774.66;5110630;28;20043;-78
2023/05/28 01:10:15;;;;;;;13.55;8.35;;;;;;;10.38;100.00;101765.25;5112574;28;20464;-77
2023/05/28 01:16:02;;;;;;;15.63;9.40;;;;;;;10.51;100.00;101763.56;5112010;28;20042;-76
2023/05/28 01:18:27;;;;;;;12.30;8.13;;;;;;;10.49;100.00;101764.78;5111558;28;20028;-78
2023/05/28 01:20:53;;;;;;;14.57;9.45;;;;;;;10.48;100.00;101779.16;5092933;28;20483;-75
2023/05/28 01:23:22;;;;;;;12.30;8.02;;;;;;;10.43;100.00;101777.06;5113837;28;20028;-76
2023/05/28 01:25:52;;;;;;;15.27;8.60;;;;;;;10.49;100.00;101786.16;5096197;28;20047;-76
2023/05/28 01:28:17;;;;;;;13.23;8.30;;;;;;;10.51;100.00;101784.97;5096460;28;20093;-76
2023/05/28 01:34:04;;;;;;;16.70;8.10;;;;;;;10.59;100.00;101772.47;5115127;28;20100;-75
2023/05/28 01:39:52;;;;;;;16.00;9.25;;;;;;;10.65;100.00;101777.88;5114560;28;20403;-75
2023/05/28 01:45:40;;;;;;;13.55;8.73;;;;;;;10.60;100.00;101779.47;5114873;28;20648;-75
2023/05/28 01:51:27;;;;;;;15.55;8.98;;;;;;;10.63;100.00;101774.56;5114287;28;20510;-75
2023/05/28 01:57:14;;;;;;;14.88;9.40;;;;;;;10.54;100.00;101765.84;5114350;28;20042;-75
2023/05/28 01:59:40;;;;;;;18.65;9.52;;;;;;;10.58;100.00;101771.66;5095956;28;20023;-75
2023/05/28 02:02:06;;;;;;;13.77;8.55;;;;;;;10.61;100.00;101771.25;5113480;28;20035;-75
2023/05/28 02:04:32;;;;;;;17.65;9.07;;;;;;;10.58;100.00;101757.44;5095920;28;20023;-76
2023/05/28 02:06:58;;;;;;;20.10;9.68;;;;;;;10.62;100.00;101769.41;5096001;28;20023;-76
2023/05/28 02:09:23;;;;;;;14.20;9.35;;;;;;;10.60;100.00;101766.94;5095303;28;20035;-76
2023/05/28 02:11:49;;;;;;;14.30;8.65;;;;;;;10.60;100.00;101763.44;5095843;28;20512;-76
2023/05/28 02:14:15;;;;;;;15.02;8.50;;;;;;;10.57;100.00;101745.91;5113278;28;20043;-74
2023/05/28 02:16:52;;;;;;;13.15;8.63;;;;;;;10.52;100.00;101749.16;5114014;28;20050;-76
2023/05/28 02:19:18;;;;;;;14.65;9.10;;;;;;;10.51;100.00;101757.38;5114021;28;20031;-76
2023/05/28 02:25:06;;;;;;;14.80;8.93;;;;;;;10.55;100.00;101745.28;5114194;28;20084;-76
2023/05/28 02:27:31;;;;;;;14.82;8.93;;;;;;;10.52;100.00;101759.03;5112808;28;20047;-76
2023/05/28 02:29:57;;;;;;;13.52;8.63;;;;;;;10.48;100.00;101752.44;5095314;28;20031;-76
2023/05/28 02:32:22;;;;;;;14.63;9.02;;;;;;;10.48;100.00;101750.59;5095402;28;20038;-76
2023/05/28 02:34:48;;;;;;;17.55;9.55;;;;;;;10.46;100.00;101751.78;5111854;28;20039;-76
2023/05/28 02:37:13;;;;;;;16.13;9.00;;;;;;;10.41;100.00;101754.22;5113707;28;20024;-76
2023/05/28 02:39:38;;;;;;;14.68;8.45;;;;;;;10.31;100.00;101753.69;5112720;28;20757;-76
2023/05/28 02:42:05;;;;;;;17.55;9.52;;;;;;;10.12;100.00;101753.25;5095286;28;20122;-76
2023/05/28 02:44:30;;;;;;;13.30;9.07;;;;;;;9.94;100.00;101750.16;5113466;28;20027;-76
2023/05/28 02:46:55;;;;;;;12.83;8.47;;;;;;;9.87;100.00;101749.25;5094712;28;20116;-76
2023/05/28 02:49:20;;;;;;;15.15;8.55;;;;;;;9.84;100.00;101754.97;5095180;28;20266;-76
2023/05/28 02:55:07;;;;;;;12.93;8.68;;;;;;;9.87;100.00;101754.59;5113531;28;20276;-76
2023/05/28 03:00:54;;;;;;;14.43;9.00;;;;;;;9.81;100.00;101758.00;5113652;28;20099;-76
2023/05/28 03:06:41;;;;;;;14.07;8.20;;;;;;;9.69;100.00;101771.00;5113646;28;20042;-76
2023/05/28 03:09:07;;;;;;;16.27;8.88;;;;;;;9.64;100.00;101765.38;5113036;28;20114;-76
2023/05/28 03:11:32;;;;;;;13.73;8.50;;;;;;;9.65;100.00;101766.22;5094186;28;20449;-76
2023/05/28 03:13:57;;;;;;;12.45;8.35;;;;;;;9.59;100.00;101760.59;5113003;28;20269;-76
2023/05/28 03:16:24;;;;;;;18.98;9.15;;;;;;;9.56;100.00;101752.97;5094028;28;20074;-76
2023/05/28 03:18:50;;;;;;;13.70;8.52;;;;;;;9.66;100.00;101759.88;5113563;28;20024;-76
2023/05/28 03:21:15;;;;;;;13.23;8.55;;;;;;;9.73;100.00;101758.94;5094439;28;20035;-76
2023/05/28 03:27:02;;;;;;;13.82;8.68;;;;;;;9.80;100.00;101754.50;5113045;28;20100;-76
2023/05/28 03:29:27;;;;;;;11.85;8.55;;;;;;;9.73;100.00;101750.09;5093777;28;20429;-77
2023/05/28 03:31:53;;;;;;;15.63;8.85;;;;;;;9.73;100.00;101763.44;5112701;28;20529;-76
2023/05/28 03:34:18;;;;;;;14.57;8.38;;;;;;;9.64;100.00;101762.72;5112018;28;20189;-76
2023/05/28 03:36:43;;;;;;;13.02;7.45;;;;;;;9.61;100.00;101763.94;5112468;28;20106;-76
2023/05/28 03:39:09;;;;;;;14.45;8.52;;;;;;;9.59;100.00;101757.94;5094245;28;20024;-76
2023/05/28 03:41:35;;;;;;;12.95;8.38;;;;;;;9.60;100.00;101762.28;5111629;28;20036;-76
2023/05/28 03:44:01;;;;;;;13.20;7.60;;;;;;;9.53;100.00;101757.81;5112346;28;20119;-75
2023/05/28 03:46:26;;;;;;;12.75;8.30;;;;;;;9.60;100.00;101767.59;5111582;28;20134;-76
2023/05/28 03:48:52;;;;;;;12.75;8.32;;;;;;;9.62;100.00;101768.25;5094016;28;20020;-77
2023/05/28 03:51:17;;;;;;;10.70;7.82;;;;;;;9.68;100.00;101763.19;5112222;28;20527;-76
2023/05/28 03:53:42;;;;;;;13.25;8.15;;;;;;;9.74;100.00;101765.94;5111441;28;20104;-76
2023/05/28 03:56:07;;;;;;;18.25;8.50;;;;;;;9.82;100.00;101763.16;5094112;28;20375;-74
2023/05/28 03:58:33;;;;;;;13.85;7.93;;;;;;;9.90;100.00;101772.91;5094411;28;20084;-76
2023/05/28 04:00:59;;;;;;;15.13;7.13;;;;;;;9.98;100.00;101775.47;5093762;28;20036;-76
2023/05/28 04:03:25;;;;;;;16.05;7.72;;;;;;;10.08;100.00;101773.34;5093921;28;20035;-76
2023/05/28 04:05:50;;;;;;;13.35;7.47;;;;;;;10.14;100.00;101769.94;5111609;28;20035;-76
2023/05/28 04:11:38;;;;;;;14.45;7.63;;;;;;;10.30;100.00;101768.06;5111348;28;20466;-75
2023/05/28 04:14:04;;;;;;;15.35;7.40;;;;;;;10.40;100.00;101780.09;5111884;28;20398;-75
2023/05/28 04:16:30;;;;;;;12.27;7.20;;;;;;;10.43;100.00;101774.38;5093553;28;20076;-75
2023/05/28 04:18:56;;;;;;;14.23;7.07;;;;;;;10.55;100.00;101780.88;5093069;28;20043;-75
2023/05/28 04:21:22;;;;;;;11.85;7.35;;;;;;;10.60;100.00;101782.97;5111900;28;20468;-75
2023/05/28 04:23:47;;;;;;;12.70;8.10;;;;;;;10.71;100.00;101784.34;5111452;28;20072;-75
2023/05/28 04:26:14;;;;;;;12.77;7.88;;;;;;;10.81;100.00;101779.47;5093510;28;20078;-76
2023/05/28 04:32:01;;;;;;;14.00;7.63;;;;;;;11.16;100.00;101793.75;5112181;28;20043;-77
2023/05/28 04:34:27;;;;;;;14.10;8.10;;;;;;;11.28;100.00;101783.34;5093568;28;20027;-76
2023/05/28 04:36:52;;;;;;;14.13;7.85;;;;;;;11.43;100.00;101792.09;5093193;28;20126;-77
2023/05/28 04:39:19;;;;;;;14.82;7.63;;;;;;;11.57;100.00;101793.03;5111940;28;20402;-76
2023/05/28 04:41:46;;;;;;;14.23;7.22;;;;;;;11.75;100.00;101790.63;5112117;28;20369;-76
2023/05/28 04:44:15;;;;;;;14.93;7.67;;;;;;;12.01;100.00;101800.69;5110996;28;20114;-75
2023/05/28 04:50:04;;;;;;;13.75;7.10;;;;;;;12.64;100.00;101804.78;5112307;28;20043;-77
2023/05/28 04:52:31;;;;;;;10.88;6.93;;;;;;;12.96;100.00;101802.34;5093382;28;20122;-76
2023/05/28 04:54:57;;;;;;;13.55;7.00;;;;;;;13.24;100.00;101803.00;5111230;28;20024;-76
2023/05/28 04:57:22;;;;;;;11.10;6.72;;;;;;;13.43;100.00;101805.88;5112661;28;20040;-76
2023/05/28 04:59:48;;;;;;;16.15;7.60;;;;;;;13.63;100.00;101795.94;5097258;28;20488;-75
2023/05/28 05:02:16;;;;;;;13.00;7.38;;;;;;;13.89;100.00;101808.47;5114516;28;20376;-76
2023/05/28 05:04:42;;;;;;;11.50;7.40;;;;;;;14.06;100.00;101787.28;5115248;28;20026;-77
2023/05/28 05:07:07;;;;;;;12.38;7.25;;;;;;;14.48;100.00;101807.41;5115289;28;20039;-77
2023/05/28 05:09:32;;;;;;;14.13;7.00;;;;;;;14.82;100.00;101801.56;5096448;28;20047;-77
2023/05/28 05:15:19;;;;;;;13.23;7.18;;;;;;;15.67;100.00;101809.13;5114810;28;20825;-77
2023/05/28 05:17:44;;;;;;;15.70;8.20;;;;;;;16.14;100.00;101807.53;5096860;28;20031;-77
2023/05/28 05:23:31;;;;;;;10.70;6.72;;;;;;;17.19;100.00;101815.16;5115166;28;20614;-76
2023/05/28 05:25:56;;;;;;;12.00;7.03;;;;;;;17.55;99.13;101808.69;5114426;28;20028;-76
2023/05/28 05:28:22;;;;;;;11.00;6.83;;;;;;;18.04;98.09;101817.34;5096389;28;20364;-77
2023/05/28 05:30:47;;;;;;;12.93;7.13;;;;;;;18.39;93.67;101822.63;5096583;28;20289;-77
2023/05/28 05:33:12;;;;;;;12.68;6.75;;;;;;;18.86;90.34;101824.09;5096074;28;20285;-77
2023/05/28 05:35:38;;;;;;;9.57;6.93;;;;;;;19.24;86.94;101827.13;5114897;28;20027;-77
2023/05/28 05:38:03;;;;;;;11.03;6.80;;;;;;;19.65;84.92;101817.69;5114676;28;20385;-77
2023/05/28 05:40:28;;;;;;;11.27;6.70;;;;;;;19.90;84.03;101820.75;5096160;28;20043;-77
2023/05/28 05:46:15;;;;;;;10.70;7.25;;;;;;;20.52;79.43;101833.19;5115422;28;20051;-77
2023/05/28 05:48:41;;;;;;;11.63;6.72;;;;;;;21.01;76.54;101831.19;5114802;28;20019;-77
2023/05/28 05:51:06;;;;;;;13.43;6.47;;;;;;;21.49;75.86;101845.75;5113942;28;20043;-77
2023/05/28 05:53:31;;;;;;;11.03;6.50;;;;;;;21.87;72.92;101839.16;5114646;28;20553;-76
2023/05/28 05:55:57;;;;;;;10.63;6.63;;;;;;;22.08;70.57;101830.00;5114534;28;20346;-76
2023/05/28 05:58:22;;;;;;;12.97;6.33;;;;;;;22.17;67.82;101844.75;5113695;28;20035;-76
2023/05/28 06:00:47;;;;;;;9.55;6.57;;;;;;;22.49;67.92;101847.31;5096212;28;20779;-76
2023/05/28 06:03:14;;;;;;;9.50;6.05;;;;;;;22.77;66.63;101845.97;5096251;28;20023;-77
2023/05/28 06:05:39;;;;;;;9.82;5.97;;;;;;;23.09;64.25;101845.75;5095509;28;20093;-76
2023/05/28 06:08:05;;;;;;;10.95;6.50;;;;;;;23.46;61.42;101844.66;5113963;28;20464;-76
2023/05/28 06:13:52;;;;;;;10.25;6.40;;;;;;;24.32;59.16;101838.13;5114767;28;20042;-76
2023/05/28 06:16:17;;;;;;;11.38;6.40;;;;;;;24.67;55.63;101839.81;5095603;28;20019;-75
2023/05/28 06:22:04;;;;;;;10.32;6.50;;;;;;;25.24;53.87;101844.56;5114717;28;20050;-76
2023/05/28 06:24:30;;;;;;;10.07;6.47;;;;;;;25.64;52.21;101840.59;5113318;28;20032;-75
2023/05/28 06:26:55;;;;;;;10.45;6.07;;;;;;;25.78;52.39;101845.44;5113899;28;20277;-76
2023/05/28 06:29:21;;;;;;;11.77;6.45;;;;;;;25.51;51.83;101838.56;5113492;28;20039;-77
2023/05/28 06:31:46;;;;;;;12.17;6.87;;;;;;;25.74;51.53;101838.91;5095433;28;20044;-76
2023/05/28 06:34:11;;;;;;;10.10;6.80;;;;;;;25.96;49.80;101838.34;5095783;28;20638;-75
2023/05/28 06:36:37;;;;;;;11.95;7.00;;;;;;;25.96;50.67;101841.09;5095188;28;20046;-77
2023/05/28 06:39:04;;;;;;;12.60;6.80;;;;;;;26.57;49.98;101841.09;5113931;28;20031;-77
2023/05/28 06:41:29;;;;;;;11.15;6.55;;;;;;;27.34;47.28;101838.75;5095182;28;20040;-78
2023/05/28 06:43:55;;;;;;;10.32;6.82;;;;;;;28.14;45.49;101839.41;5095630;28;20106;-77
2023/05/28 06:49:41;;;;;;;11.45;5.95;;;;;;;29.57;41.38;101843.13;5113563;28;20320;-76
2023/05/28 06:52:07;;;;;;;10.10;6.33;;;;;;;30.21;40.78;101844.28;5095101;28;20066;-76
2023/05/28 06:54:32;;;;;;;10.07;6.77;;;;;;;30.43;38.92;101845.28;5094808;28;20480;-76
2023/05/28 06:56:57;;;;;;;9.85;6.60;;;;;;;30.24;37.28;101844.78;5113523;28;20783;-76
2023/05/28 06:59:23;;;;;;;11.47;6.43;;;;;;;29.70;39.47;101844.94;5112696;28;20040;-77
2023/05/28 07:01:48;;;;;;;12.43;7.00;;;;;;;29.70;38.56;101838.63;5094989;28;20024;-76
2023/05/28 07:04:13;;;;;;;13.00;7.03;;;;;;;29.66;39.26;101835.69;5113119;28;20049;-77
2023/05/28 07:06:39;;;;;;;9.50;6.13;;;;;;;30.12;37.44;101842.66;5112769;28;20048;-76
2023/05/28 07:09:04;;;;;;;8.77;6.30;;;;;;;30.12;37.73;101848.19;5113405;28;20024;-76
2023/05/28 07:11:30;;;;;;;13.25;6.78;;;;;;;29.60;37.98;101848.81;5112668;28;20031;-77
2023/05/28 07:13:55;;;;;;;11.00;6.77;;;;;;;29.50;38.56;101842.78;5094956;28;20038;-77
2023/05/28 07:16:21;;;;;;;11.00;6.45;;;;;;;29.53;37.50;101840.19;5113293;28;20281;-76
2023/05/28 07:18:47;;;;;;;10.88;6.22;;;;;;;29.12;38.64;101845.09;5112324;28;20487;-76
2023/05/28 07:21:12;;;;;;;9.00;6.55;;;;;;;28.50;40.06;101843.00;5094549;28;20084;-75
2023/05/28 07:23:37;;;;;;;9.85;6.60;;;;;;;28.06;40.75;101849.19;5112996;28;20520;-75
2023/05/28 07:26:02;;;;;;;12.93;6.87;;;;;;;27.57;41.62;101855.38;5112104;28;20062;-76
2023/05/28 07:28:28;;;;;;;9.63;6.40;;;;;;;27.56;42.76;101862.81;5112996;28;20273;-77
2023/05/28 07:30:53;;;;;;;10.07;6.70;;;;;;;28.46;41.75;101872.28;5112295;28;20301;-77
2023/05/28 07:33:19;;;;;;;11.27;6.83;;;;;;;29.79;38.66;101867.88;5094941;28;20384;-76
2023/05/28 07:35:44;;;;;;;11.75;6.57;;;;;;;30.87;36.85;101871.78;5094514;28;20032;-76
2023/05/28 07:38:11;;;;;;;11.73;7.20;;;;;;;31.11;35.39;101863.78;5112263;28;20066;-75
2023/05/28 07:40:36;;;;;;;9.82;6.75;;;;;;;30.50;36.25;101863.00;5094665;28;20016;-76
2023/05/28 07:43:02;;;;;;;11.02;7.35;;;;;;;30.89;35.25;101863.16;5094746;28;20403;-76
2023/05/28 07:48:49;;;;;;;10.68;6.57;;;;;;;29.81;36.58;101854.56;5112909;28;20088;-75
2023/05/28 07:51:15;;;;;;;9.15;6.50;;;;;;;28.86;38.68;101859.50;5093784;28;20044;-76
2023/05/28 07:53:41;;;;;;;11.80;6.18;;;;;;;27.98;41.06;101864.47;5112871;28;20024;-76
2023/05/28 07:56:06;;;;;;;9.77;6.53;;;;;;;27.23;42.15;101858.47;5111940;28;20076;-76
2023/05/28 07:58:32;;;;;;;12.40;7.78;;;;;;;26.42;44.71;101871.50;5112893;28;20451;-77
2023/05/28 08:00:57;;;;;;;11.23;7.32;;;;;;;25.97;46.98;101859.16;5112726;28;20506;-76
2023/05/28 08:03:27;;;;;;;11.30;7.05;;;;;;;25.58;48.07;101852.72;5093729;28;20040;-76
2023/05/28 08:09:17;;;;;;;10.10;6.63;;;;;;;24.85;49.35;101862.91;5112828;28;20446;-76
2023/05/28 08:11:43;;;;;;;11.95;7.57;;;;;;;24.43;51.48;101860.75;5094256;28;20028;-76
2023/05/28 08:14:08;;;;;;;10.70;7.53;;;;;;;24.36;53.56;101856.41;5112448;28;20426;-77
2023/05/28 08:19:55;;;;;;;12.23;6.72;;;;;;;29.73;40.46;101869.13;5112540;28;20728;-76
2023/05/28 08:22:21;;;;;;;12.43;7.20;;;;;;;31.49;37.51;101868.56;5111624;28;20071;-76
2023/05/28 08:24:46;;;;;;;11.87;7.20;;;;;;;32.55;34.72;101865.75;5112413;28;20027;-77
2023/05/28 08:27:11;;;;;;;11.50;6.70;;;;;;;33.27;32.89;101864.44;5093373;28;20785;-76
2023/05/28 08:29:36;;;;;;;10.90;7.07;;;;;;;33.94;32.39;101871.47;5112133;28;20277;-77
2023/05/28 08:32:02;;;;;;;10.77;6.30;;;;;;;34.81;31.27;101870.13;5112597;28;20106;-75
2023/05/28 08:34:28;;;;;;;11.27;6.47;;;;;;;35.39;29.33;101871.38;5114984;28;20050;-75
2023/05/28 08:36:54;;;;;;;11.95;6.80;;;;;;;35.95;28.41;101860.03;5115604;28;20030;-75
2023/05/28 08:39:20;;;;;;;11.63;6.88;;;;;;;36.02;29.38;101859.38;5114919;28;20035;-76
2023/05/28 08:45:07;;;;;;;9.87;6.30;;;;;;;35.69;28.44;101857.78;5116181;28;20445;-74
2023/05/28 08:47:34;;;;;;;9.15;5.30;;;;;;;36.04;26.03;101857.84;5115782;28;20368;-75
2023/05/28 08:50:05;;;;;;;12.27;5.78;;;;;;;36.13;26.41;101844.50;5115897;28;20027;-74
2023/05/28 08:55:52;;;;;;;7.67;4.23;;;;;;;36.59;23.46;101858.66;5115819;28;20553;-74
2023/05/28 09:01:39;;;;;;;10.35;4.80;;;;;;;36.48;24.21;101858.47;5116251;28;20537;-76
2023/05/28 09:07:27;;;;;;;8.65;4.32;;;;;;;35.34;24.02;101852.97;5116086;28;20515;-74
2023/05/28 09:13:19;;;;;;;7.57;4.67;;;;;;;33.70;26.70;101838.16;5115977;28;20046;-76
2023/05/28 09:15:50;;;;;;;9.90;4.93;;;;;;;32.65;28.50;101838.44;5114845;28;20048;-75
2023/05/28 09:21:37;;;;;;;9.63;5.17;;;;;;;31.67;29.39;101823.13;5115536;28;20038;-75
2023/05/28 09:24:04;;;;;;;6.18;3.95;;;;;;;31.11;28.57;101827.84;5097365;28;20027;-76
2023/05/28 09:29:51;;;;;;;6.60;3.72;;;;;;;29.91;29.53;101823.91;5115746;28;20051;-75
2023/05/28 09:35:38;;;;;;;7.47;4.25;;;;;;;29.68;30.68;101816.88;5115729;28;20070;-74
2023/05/28 09:38:10;;;;;;;7.43;3.92;;;;;;;29.44;30.64;101821.94;5096268;28;20047;-74
2023/05/28 09:40:40;;;;;;;6.45;3.70;;;;;;;29.38;30.82;101820.44;5097310;28;20019;-76
2023/05/28 09:46:29;;;;;;;7.43;4.18;;;;;;;29.24;31.80;101823.31;5115890;28;20050;-77
2023/05/28 09:52:20;;;;;;;7.63;4.50;;;;;;;28.78;32.31;101812.63;5115540;28;20124;-76
2023/05/28 09:54:55;;;;;;;7.45;3.90;;;;;;;28.59;32.78;101813.59;5097984;28;20490;-77
2023/05/28 09:57:26;;;;;;;8.30;3.53;;;;;;;28.50;32.83;101814.66;5106305;28;20039;-77
2023/05/28 10:03:25;;;;;;;7.25;3.88;;;;;;;28.29;34.06;101800.56;5115802;28;20046;-77
2023/05/28 10:09:15;;;;;;;6.43;4.13;;;;;;;28.49;32.52;101802.84;5115069;28;20047;-77
2023/05/28 10:11:53;;;;;;;8.10;4.07;;;;;;;28.27;33.95;101800.88;5096740;28;20034;-77
2023/05/28 10:14:19;;;;;;;9.60;4.00;;;;;;;28.41;32.55;101806.34;5096889;28;20400;-77
2023/05/28 10:16:45;;;;;;;7.28;4.22;;;;;;;28.53;33.78;101805.78;5115908;28;20027;-76
2023/05/28 10:19:11;;;;;;;7.55;4.10;;;;;;;28.61;33.17;101811.34;5114215;28;20073;-75
2023/05/28 10:21:37;;;;;;;7.72;3.80;;;;;;;28.68;33.37;101810.94;5096533;28;20115;-76
2023/05/28 10:24:03;;;;;;;6.55;4.15;;;;;;;28.76;33.49;101820.38;5114141;28;20031;-77
2023/05/28 10:26:29;;;;;;;9.02;3.90;;;;;;;28.47;32.34;101818.88;5114384;28;20491;-76
2023/05/28 10:28:55;;;;;;;8.18;4.10;;;;;;;28.43;32.71;101814.28;5114448;28;20054;-76
2023/05/28 10:31:22;;;;;;;11.43;4.38;;;;;;;28.41;32.96;101811.03;5113632;28;20036;-76
2023/05/28 10:33:48;;;;;;;6.70;4.13;;;;;;;28.14;32.49;101801.72;5114636;28;20032;-77
2023/05/28 10:36:14;;;;;;;6.97;3.83;;;;;;;27.81;33.95;101812.03;5113204;28;20036;-76
2023/05/28 10:42:02;;;;;;;8.73;3.90;;;;;;;27.89;33.40;101805.81;5114214;28;20069;-77
2023/05/28 10:44:48;;;;;;;6.95;3.53;;;;;;;27.84;35.24;101811.44;5095673;28;20030;-76
2023/05/28 10:47:14;;;;;;;8.80;4.20;;;;;;;27.80;33.71;101818.66;5095599;28;20032;-76
2023/05/28 10:50:09;;;;;;;5.55;3.58;;;;;;;27.84;34.17;101811.44;5113181;28;20042;-75
2023/05/28 10:52:37;;;;;;;8.23;3.95;;;;;;;27.79;34.03;101817.03;5095527;28;20027;-75
2023/05/28 10:55:05;;;;;;;6.07;3.55;;;;;;;27.90;33.69;101823.13;5112212;28;20046;-76
2023/05/28 10:57:47;;;;;;;6.72;3.53;;;;;;;27.93;34.46;101817.81;5113907;28;20026;-77
2023/05/28 11:00:21;;;;;;;6.93;3.53;;;;;;;27.92;34.67;101815.38;5112976;28;20043;-76
2023/05/28 11:06:10;;;;;;;8.95;3.95;;;;;;;27.73;34.68;101810.00;5113215;28;20095;-76
2023/05/28 11:11:59;;;;;;;7.63;3.63;;;;;;;28.01;32.50;101811.59;5113705;28;20073;-75
2023/05/28 11:14:29;;;;;;;6.30;3.47;;;;;;;28.20;32.97;101805.97;5113783;28;20035;-76
2023/05/28 11:16:54;;;;;;;8.02;3.90;;;;;;;28.39;33.07;101811.34;5094714;28;20034;-76
2023/05/28 11:19:20;;;;;;;8.60;3.80;;;;;;;28.58;32.12;101811.16;5113346;28;20043;-77
2023/05/28 11:25:08;;;;;;;6.93;3.83;;;;;;;28.65;34.11;101817.88;5113254;28;20760;-77
2023/05/28 11:27:37;;;;;;;9.45;3.75;;;;;;;28.62;33.02;101815.75;5094718;28;20024;-75
2023/05/28 11:33:29;;;;;;;9.52;4.13;;;;;;;28.93;34.70;101812.28;5113172;28;20137;-76
2023/05/28 11:39:16;;;;;;;6.53;3.58;;;;;;;29.21;32.77;101813.75;5114009;28;20130;-74
2023/05/28 11:41:41;;;;;;;6.55;3.45;;;;;;;29.52;30.31;101810.19;5094810;28;20071;-76
2023/05/28 11:47:32;;;;;;;6.80;3.65;;;;;;;30.51;28.48;101811.34;5113973;28;20431;-76
2023/05/28 11:49:57;;;;;;;5.82;3.28;;;;;;;30.92;27.38;101799.78;5112932;28;20027;-75
2023/05/28 11:55:44;;;;;;;6.93;3.40;;;;;;;32.27;25.58;101818.41;5113173;28;20288;-75
2023/05/28 11:58:10;;;;;;;5.82;3.15;;;;;;;32.47;26.40;101820.38;5113095;28;20016;-75
2023/05/28 12:04:05;;;;;;;8.23;4.05;;;;;;;31.20;30.36;101794.69;5113141;28;20034;-75
2023/05/28 12:06:33;;;;;;;6.88;3.88;;;;;;;30.81;29.77;101804.03;5093952;28;20062;-74
2023/05/28 12:12:20;;;;;;;8.73;4.22;;;;;;;30.52;30.57;101808.25;5112720;28;20048;-76
2023/05/28 12:21:35;;;;;;;8.80;4.35;;;;;;;31.69;28.89;101804.22;5112917;28;20054;-75
2023/05/28 12:27:22;;;;;;;6.75;3.60;;;;;;;31.19;29.02;101793.06;5113433;28;20273;-76
2023/05/28 12:29:47;;;;;;;6.40;3.60;;;;;;;31.01;28.76;101799.78;5112460;28;20468;-75
2023/05/28 12:32:12;;;;;;;6.80;3.90;;;;;;;30.44;31.07;101795.28;5112214;28;20039;-76
2023/05/28 12:34:38;;;;;;;5.83;3.80;;;;;;;29.83;29.78;101797.13;5113423;28;20083;-76
2023/05/28 12:37:04;;;;;;;6.60;3.17;;;;;;;29.49;31.44;101795.09;5094380;28;20277;-76
2023/05/28 12:39:30;;;;;;;6.13;3.20;;;;;;;29.51;30.84;101795.59;5094771;28;20454;-75
2023/05/28 12:41:55;;;;;;;8.18;4.00;;;;;;;29.69;30.01;101799.19;5094656;28;20450;-77
2023/05/28 12:44:20;;;;;;;9.18;3.92;;;;;;;29.94;31.06;101786.59;5115148;28;20063;-78
2023/05/28 12:46:46;;;;;;;7.07;3.90;;;;;;;30.00;30.24;101790.81;5095404;28;20478;-76
2023/05/28 12:52:34;;;;;;;10.18;3.85;;;;;;;30.59;31.03;101785.66;5112666;28;20117;-76
2023/05/28 12:55:03;;;;;;;7.22;3.90;;;;;;;30.39;29.89;101778.88;5113031;28;20027;-77
2023/05/28 13:00:50;;;;;;;7.32;4.00;;;;;;;29.37;31.68;101772.78;5112939;28;20073;-77
2023/05/28 13:03:15;;;;;;;6.90;4.10;;;;;;;29.80;31.46;101772.97;5093614;28;20044;-76
2023/05/28 13:05:41;;;;;;;7.27;3.73;;;;;;;30.36;29.82;101771.25;5096369;28;20028;-79
2023/05/28 13:08:06;;;;;;;6.87;3.97;;;;;;;30.69;30.07;101790.09;5096327;28;20321;-76
2023/05/28 13:10:32;;;;;;;6.45;3.67;;;;;;;30.60;30.88;101787.31;5112707;28;20305;-76
2023/05/28 13:12:57;;;;;;;6.38;3.70;;;;;;;30.28;28.84;101785.03;5094267;28;20064;-76
2023/05/28 13:15:22;;;;;;;11.18;4.45;;;;;;;29.81;29.94;101777.34;5093448;28;20039;-76
2023/05/28 13:17:48;;;;;;;5.65;3.47;;;;;;;29.53;29.98;101784.25;5093522;28;20038;-75
2023/05/28 13:20:13;;;;;;;6.38;4.00;;;;;;;29.35;30.91;101769.53;5114380;28;20122;-75
2023/05/28 13:22:40;;;;;;;7.28;3.40;;;;;;;28.95;30.69;101765.97;5096921;28;20024;-76
2023/05/28 13:28:27;;;;;;;7.72;3.60;;;;;;;28.48;32.34;101770.94;5115437;28;20042;-75
2023/05/28 13:30:52;;;;;;;7.63;3.75;;;;;;;28.28;31.81;101755.72;5096930;28;20106;-75
2023/05/28 13:33:18;;;;;;;7.28;3.60;;;;;;;28.08;32.43;101767.19;5114559;28;20499;-75
2023/05/28 13:39:05;;;;;;;5.80;3.63;;;;;;;27.03;34.78;101767.09;5115119;28;20038;-75
2023/05/28 13:41:31;;;;;;;8.00;3.90;;;;;;;26.98;32.51;101769.91;5097105;28;20118;-75
2023/05/28 13:43:56;;;;;;;6.47;3.47;;;;;;;26.83;32.63;101762.72;5114464;28;20493;-75
2023/05/28 13:49:43;;;;;;;8.20;3.78;;;;;;;26.74;33.76;101764.53;5115426;28;20042;-76
2023/05/28 13:55:30;;;;;;;10.13;3.55;;;;;;;26.49;34.85;101756.72;5114915;28;20092;-76
2023/05/28 14:01:17;;;;;;;6.63;3.50;;;;;;;25.58;37.12;101742.31;5114751;28;20075;-77
2023/05/28 14:03:45;;;;;;;6.20;3.50;;;;;;;25.38;37.27;101748.03;5113660;28;20423;-76
2023/05/28 14:06:11;;;;;;;8.00;3.53;;;;;;;25.47;35.76;101752.59;5114737;28;20519;-75
2023/05/28 14:08:36;;;;;;;6.22;3.42;;;;;;;25.46;37.86;101750.16;5095606;28;20027;-76
2023/05/28 14:11:01;;;;;;;7.78;3.42;;;;;;;25.47;36.27;101749.03;5114408;28;20396;-75
2023/05/28 14:13:31;;;;;;;6.70;3.25;;;;;;;25.29;35.92;101740.47;5095808;28;20032;-75
2023/05/28 14:15:56;;;;;;;7.65;3.50;;;;;;;25.19;39.23;101748.81;5113296;28;20127;-75
2023/05/28 14:21:43;;;;;;;6.97;3.83;;;;;;;25.25;37.80;101744.09;5113986;28;20042;-76
2023/05/28 14:27:30;;;;;;;4.43;2.97;;;;;;;24.98;34.06;101734.50;5114286;28;20514;-75
2023/05/28 14:29:55;;;;;;;5.37;3.00;;;;;;;24.96;32.47;101747.63;5112808;28;20028;-75
2023/05/28 14:32:21;;;;;;;7.27;3.57;;;;;;;24.89;33.66;101741.69;5095752;28;20016;-74
2023/05/28 14:34:46;;;;;;;7.03;3.50;;;;;;;24.85;34.12;101731.56;5095043;28;20318;-74
2023/05/28 14:37:12;;;;;;;6.10;3.33;;;;;;;24.64;36.57;101734.53;5095605;28;20281;-75
2023/05/28 14:39:37;;;;;;;5.20;3.30;;;;;;;24.64;35.66;101728.22;5094674;28;20038;-74
2023/05/28 14:42:02;;;;;;;5.15;3.08;;;;;;;24.86;36.61;101738.69;5095433;28;20536;-76
2023/05/28 14:44:28;;;;;;;7.18;3.92;;;;;;;25.06;37.72;101744.00;5113974;28;20019;-75
2023/05/28 14:46:53;;;;;;;6.88;3.45;;;;;;;25.25;37.91;101739.44;5112938;28;20035;-75
2023/05/28 14:49:19;;;;;;;5.40;3.42;;;;;;;25.40;38.19;101734.88;5095451;28;20106;-75
2023/05/28 14:51:44;;;;;;;8.77;3.80;;;;;;;25.51;38.59;101747.34;5095349;28;20027;-75
2023/05/28 14:54:09;;;;;;;7.50;4.07;;;;;;;25.57;39.23;101744.25;5091560;28;20028;-76
2023/05/28 14:56:35;;;;;;;6.90;3.72;;;;;;;25.75;38.63;101737.22;5113716;28;20637;-76